sensor_id;sensor_type;location;lat;lon;timestamp;P1;durP1;ratioP1;P2;durP2;ratioP2
22103;SDS011;11218;48.886;9.426;2023-03-14T00:01:10;10.73;;;1.80;;
22103;SDS011;11218;48.886;9.426;2023-03-14T00:03:40;10.15;;;1.85;;
22103;SDS011;11218;48.886;9.426;2023-03-14T00:06:09;11.07;;;2.00;;
22103;SDS011;11218;48.886;9.426;2023-03-14T00:08:40;10.02;;;1.83;;
22103;SDS011;11218;48.886;9.426;2023-03-14T00:11:09;9.82;;;1.73;;
22103;SDS011;11218;48.886;9.426;2023-03-14T00:13:39;12.23;;;2.05;;
22103;SDS011;11218;48.886;9.426;2023-03-14T00:16:08;13.25;;;2.10;;
22103;SDS011;11218;48.886;9.426;2023-03-14T00:18:38;14.85;;;2.35;;
22103;SDS011;11218;48.886;9.426;2023-03-14T00:21:07;11.10;;;2.03;;
22103;SDS011;11218;48.886;9.426;2023-03-14T00:23:38;12.98;;;2.33;;
22103;SDS011;11218;48.886;9.426;2023-03-14T00:26:08;9.07;;;1.42;;
22103;SDS011;11218;48.886;9.426;2023-03-14T00:28:38;14.00;;;2.08;;
22103;SDS011;11218;48.886;9.426;2023-03-14T00:31:07;10.75;;;1.98;;
22103;SDS011;11218;48.886;9.426;2023-03-14T00:33:36;10.07;;;2.00;;
22103;SDS011;11218;48.886;9.426;2023-03-14T00:36:05;14.60;;;2.40;;
22103;SDS011;11218;48.886;9.426;2023-03-14T00:38:38;17.67;;;2.60;;
22103;SDS011;11218;48.886;9.426;2023-03-14T00:41:08;19.75;;;3.17;;
22103;SDS011;11218;48.886;9.426;2023-03-14T00:43:38;22.48;;;3.40;;
22103;SDS011;11218;48.886;9.426;2023-03-14T00:46:07;18.75;;;2.88;;
22103;SDS011;11218;48.886;9.426;2023-03-14T00:48:35;14.20;;;2.45;;
22103;SDS011;11218;48.886;9.426;2023-03-14T00:51:04;11.15;;;2.03;;
22103;SDS011;11218;48.886;9.426;2023-03-14T00:53:35;11.18;;;1.98;;
22103;SDS011;11218;48.886;9.426;2023-03-14T00:56:06;16.13;;;2.47;;
22103;SDS011;11218;48.886;9.426;2023-03-14T00:58:36;13.25;;;2.25;;
22103;SDS011;11218;48.886;9.426;2023-03-14T01:01:05;14.48;;;2.30;;
22103;SDS011;11218;48.886;9.426;2023-03-14T01:03:35;12.95;;;2.15;;
22103;SDS011;11218;48.886;9.426;2023-03-14T01:06:07;11.07;;;1.92;;
22103;SDS011;11218;48.886;9.426;2023-03-14T01:08:36;12.23;;;2.03;;
22103;SDS011;11218;48.886;9.426;2023-03-14T01:11:08;13.00;;;2.03;;
22103;SDS011;11218;48.886;9.426;2023-03-14T01:13:37;6.85;;;1.33;;
22103;SDS011;11218;48.886;9.426;2023-03-14T01:16:06;12.30;;;1.95;;
22103;SDS011;11218;48.886;9.426;2023-03-14T01:18:36;8.10;;;1.50;;
22103;SDS011;11218;48.886;9.426;2023-03-14T01:21:09;11.07;;;1.95;;
22103;SDS011;11218;48.886;9.426;2023-03-14T01:23:38;14.18;;;2.22;;
22103;SDS011;11218;48.886;9.426;2023-03-14T01:26:09;10.85;;;1.90;;
22103;SDS011;11218;48.886;9.426;2023-03-14T01:28:38;7.85;;;1.42;;
22103;SDS011;11218;48.886;9.426;2023-03-14T01:31:07;10.10;;;1.73;;
22103;SDS011;11218;48.886;9.426;2023-03-14T01:33:37;14.77;;;2.25;;
22103;SDS011;11218;48.886;9.426;2023-03-14T01:36:06;11.10;;;1.65;;
22103;SDS011;11218;48.886;9.426;2023-03-14T01:38:37;9.30;;;1.63;;
22103;SDS011;11218;48.886;9.426;2023-03-14T01:41:07;7.32;;;1.35;;
22103;SDS011;11218;48.886;9.426;2023-03-14T01:43:40;11.45;;;1.90;;
22103;SDS011;11218;48.886;9.426;2023-03-14T01:49:01;7.18;;;1.35;;
22103;SDS011;11218;48.886;9.426;2023-03-14T01:51:36;5.80;;;1.13;;
22103;SDS011;11218;48.886;9.426;2023-03-14T01:54:10;12.77;;;2.05;;
22103;SDS011;11218;48.886;9.426;2023-03-14T01:56:44;16.40;;;2.50;;
22103;SDS011;11218;48.886;9.426;2023-03-14T01:59:15;11.50;;;1.80;;
22103;SDS011;11218;48.886;9.426;2023-03-14T02:01:44;11.40;;;1.88;;
22103;SDS011;11218;48.886;9.426;2023-03-14T02:04:15;9.85;;;1.60;;
22103;SDS011;11218;48.886;9.426;2023-03-14T02:06:47;14.50;;;2.17;;
22103;SDS011;11218;48.886;9.426;2023-03-14T02:09:18;14.82;;;2.33;;
22103;SDS011;11218;48.886;9.426;2023-03-14T02:11:49;9.30;;;1.65;;
22103;SDS011;11218;48.886;9.426;2023-03-14T02:14:24;9.98;;;1.75;;
22103;SDS011;11218;48.886;9.426;2023-03-14T02:16:57;14.40;;;2.25;;
22103;SDS011;11218;48.886;9.426;2023-03-14T02:19:32;11.63;;;2.05;;
22103;SDS011;11218;48.886;9.426;2023-03-14T02:22:08;11.23;;;1.98;;
22103;SDS011;11218;48.886;9.426;2023-03-14T02:24:40;11.23;;;1.80;;
22103;SDS011;11218;48.886;9.426;2023-03-14T02:27:16;13.45;;;2.13;;
22103;SDS011;11218;48.886;9.426;2023-03-14T02:29:47;9.50;;;1.67;;
22103;SDS011;11218;48.886;9.426;2023-03-14T02:32:19;17.02;;;2.65;;
22103;SDS011;11218;48.886;9.426;2023-03-14T02:34:51;12.82;;;1.90;;
22103;SDS011;11218;48.886;9.426;2023-03-14T02:37:22;11.50;;;1.85;;
22103;SDS011;11218;48.886;9.426;2023-03-14T02:39:53;16.48;;;2.53;;
22103;SDS011;11218;48.886;9.426;2023-03-14T02:42:23;8.52;;;1.50;;
22103;SDS011;11218;48.886;9.426;2023-03-14T02:44:52;16.52;;;2.42;;
22103;SDS011;11218;48.886;9.426;2023-03-14T02:47:22;21.33;;;3.15;;
22103;SDS011;11218;48.886;9.426;2023-03-14T02:49:58;20.27;;;2.97;;
22103;SDS011;11218;48.886;9.426;2023-03-14T02:52:29;23.52;;;3.25;;
22103;SDS011;11218;48.886;9.426;2023-03-14T02:54:57;18.05;;;2.70;;
22103;SDS011;11218;48.886;9.426;2023-03-14T02:57:26;15.80;;;2.47;;
22103;SDS011;11218;48.886;9.426;2023-03-14T02:59:57;11.40;;;2.00;;
22103;SDS011;11218;48.886;9.426;2023-03-14T03:02:26;12.43;;;2.17;;
22103;SDS011;11218;48.886;9.426;2023-03-14T03:04:55;11.88;;;1.90;;
22103;SDS011;11218;48.886;9.426;2023-03-14T03:07:22;13.75;;;2.05;;
22103;SDS011;11218;48.886;9.426;2023-03-14T03:09:50;15.52;;;2.38;;
22103;SDS011;11218;48.886;9.426;2023-03-14T03:12:19;11.73;;;1.92;;
22103;SDS011;11218;48.886;9.426;2023-03-14T03:14:48;10.95;;;1.80;;
22103;SDS011;11218;48.886;9.426;2023-03-14T03:17:16;13.05;;;2.10;;
22103;SDS011;11218;48.886;9.426;2023-03-14T03:19:44;15.07;;;2.33;;
22103;SDS011;11218;48.886;9.426;2023-03-14T03:22:13;8.07;;;1.50;;
22103;SDS011;11218;48.886;9.426;2023-03-14T03:24:41;9.27;;;1.65;;
22103;SDS011;11218;48.886;9.426;2023-03-14T03:27:09;12.30;;;2.00;;
22103;SDS011;11218;48.886;9.426;2023-03-14T03:29:37;14.10;;;2.08;;
22103;SDS011;11218;48.886;9.426;2023-03-14T03:32:06;15.07;;;2.42;;
22103;SDS011;11218;48.886;9.426;2023-03-14T03:34:34;12.57;;;2.22;;
22103;SDS011;11218;48.886;9.426;2023-03-14T03:37:02;20.40;;;3.03;;
22103;SDS011;11218;48.886;9.426;2023-03-14T03:39:30;11.45;;;2.08;;
22103;SDS011;11218;48.886;9.426;2023-03-14T03:41:58;12.43;;;2.10;;
22103;SDS011;11218;48.886;9.426;2023-03-14T03:44:26;10.75;;;1.77;;
22103;SDS011;11218;48.886;9.426;2023-03-14T03:46:54;11.48;;;2.00;;
22103;SDS011;11218;48.886;9.426;2023-03-14T03:49:23;9.50;;;1.70;;
22103;SDS011;11218;48.886;9.426;2023-03-14T03:51:51;13.00;;;2.10;;
22103;SDS011;11218;48.886;9.426;2023-03-14T03:54:19;11.18;;;2.10;;
22103;SDS011;11218;48.886;9.426;2023-03-14T03:56:48;17.38;;;4.65;;
22103;SDS011;11218;48.886;9.426;2023-03-14T03:59:16;13.32;;;3.30;;
22103;SDS011;11218;48.886;9.426;2023-03-14T04:01:44;21.75;;;5.10;;
22103;SDS011;11218;48.886;9.426;2023-03-14T04:04:14;18.50;;;5.78;;
22103;SDS011;11218;48.886;9.426;2023-03-14T04:06:45;39.40;;;13.35;;
22103;SDS011;11218;48.886;9.426;2023-03-14T04:09:13;106.38;;;38.47;;
22103;SDS011;11218;48.886;9.426;2023-03-14T04:11:41;63.53;;;23.17;;
22103;SDS011;11218;48.886;9.426;2023-03-14T04:14:09;36.80;;;13.32;;
22103;SDS011;11218;48.886;9.426;2023-03-14T04:16:38;32.83;;;11.98;;
22103;SDS011;11218;48.886;9.426;2023-03-14T04:19:05;23.02;;;9.20;;
22103;SDS011;11218;48.886;9.426;2023-03-14T04:21:34;17.77;;;5.88;;
22103;SDS011;11218;48.886;9.426;2023-03-14T04:24:03;25.50;;;7.07;;
22103;SDS011;11218;48.886;9.426;2023-03-14T04:26:32;15.20;;;3.40;;
22103;SDS011;11218;48.886;9.426;2023-03-14T04:29:00;14.25;;;3.85;;
22103;SDS011;11218;48.886;9.426;2023-03-14T04:31:28;16.90;;;4.18;;
22103;SDS011;11218;48.886;9.426;2023-03-14T04:33:56;15.27;;;4.05;;
22103;SDS011;11218;48.886;9.426;2023-03-14T04:36:24;18.08;;;2.78;;
22103;SDS011;11218;48.886;9.426;2023-03-14T04:38:52;12.05;;;2.50;;
22103;SDS011;11218;48.886;9.426;2023-03-14T04:41:22;12.90;;;2.72;;
22103;SDS011;11218;48.886;9.426;2023-03-14T04:43:50;11.23;;;2.08;;
22103;SDS011;11218;48.886;9.426;2023-03-14T04:46:18;14.52;;;2.42;;
22103;SDS011;11218;48.886;9.426;2023-03-14T04:48:46;13.88;;;2.60;;
22103;SDS011;11218;48.886;9.426;2023-03-14T04:51:14;30.13;;;4.35;;
22103;SDS011;11218;48.886;9.426;2023-03-14T04:53:42;13.07;;;2.10;;
22103;SDS011;11218;48.886;9.426;2023-03-14T04:56:10;17.40;;;2.67;;
22103;SDS011;11218;48.886;9.426;2023-03-14T04:58:41;20.30;;;2.88;;
22103;SDS011;11218;48.886;9.426;2023-03-14T05:01:10;15.73;;;2.53;;
22103;SDS011;11218;48.886;9.426;2023-03-14T05:03:38;17.15;;;2.70;;
22103;SDS011;11218;48.886;9.426;2023-03-14T05:06:06;19.77;;;2.97;;
22103;SDS011;11218;48.886;9.426;2023-03-14T05:08:34;14.23;;;2.45;;
22103;SDS011;11218;48.886;9.426;2023-03-14T05:11:02;16.27;;;2.70;;
22103;SDS011;11218;48.886;9.426;2023-03-14T05:13:30;11.60;;;2.25;;
22103;SDS011;11218;48.886;9.426;2023-03-14T05:16:06;13.75;;;2.25;;
22103;SDS011;11218;48.886;9.426;2023-03-14T05:18:36;12.60;;;2.28;;
22103;SDS011;11218;48.886;9.426;2023-03-14T05:21:04;15.10;;;2.63;;
22103;SDS011;11218;48.886;9.426;2023-03-14T05:23:33;14.43;;;2.20;;
22103;SDS011;11218;48.886;9.426;2023-03-14T05:26:01;17.23;;;2.72;;
22103;SDS011;11218;48.886;9.426;2023-03-14T05:28:29;10.70;;;1.90;;
22103;SDS011;11218;48.886;9.426;2023-03-14T05:30:57;16.65;;;2.72;;
22103;SDS011;11218;48.886;9.426;2023-03-14T05:33:27;14.75;;;2.72;;
22103;SDS011;11218;48.886;9.426;2023-03-14T05:35:54;11.48;;;1.95;;
22103;SDS011;11218;48.886;9.426;2023-03-14T05:38:23;11.63;;;2.00;;
22103;SDS011;11218;48.886;9.426;2023-03-14T05:40:51;13.80;;;2.40;;
22103;SDS011;11218;48.886;9.426;2023-03-14T05:43:19;16.13;;;2.60;;
22103;SDS011;11218;48.886;9.426;2023-03-14T05:45:47;15.13;;;2.50;;
22103;SDS011;11218;48.886;9.426;2023-03-14T05:48:15;14.93;;;2.55;;
22103;SDS011;11218;48.886;9.426;2023-03-14T05:50:45;12.75;;;2.20;;
22103;SDS011;11218;48.886;9.426;2023-03-14T05:53:13;16.27;;;2.65;;
22103;SDS011;11218;48.886;9.426;2023-03-14T05:55:42;22.48;;;3.40;;
22103;SDS011;11218;48.886;9.426;2023-03-14T05:58:09;15.27;;;2.65;;
22103;SDS011;11218;48.886;9.426;2023-03-14T06:00:37;13.73;;;2.33;;
22103;SDS011;11218;48.886;9.426;2023-03-14T06:03:05;14.85;;;2.03;;
22103;SDS011;11218;48.886;9.426;2023-03-14T06:05:33;14.95;;;2.78;;
22103;SDS011;11218;48.886;9.426;2023-03-14T06:08:04;11.68;;;1.92;;
22103;SDS011;11218;48.886;9.426;2023-03-14T06:10:32;17.95;;;2.72;;
22103;SDS011;11218;48.886;9.426;2023-03-14T06:13:00;32.67;;;4.47;;
22103;SDS011;11218;48.886;9.426;2023-03-14T06:15:28;15.48;;;2.60;;
22103;SDS011;11218;48.886;9.426;2023-03-14T06:17:56;20.83;;;3.30;;
22103;SDS011;11218;48.886;9.426;2023-03-14T06:20:24;8.50;;;1.83;;
22103;SDS011;11218;48.886;9.426;2023-03-14T06:22:52;19.45;;;3.40;;
22103;SDS011;11218;48.886;9.426;2023-03-14T06:25:21;12.38;;;2.40;;
22103;SDS011;11218;48.886;9.426;2023-03-14T06:27:49;19.90;;;3.13;;
22103;SDS011;11218;48.886;9.426;2023-03-14T06:30:17;23.13;;;4.13;;
22103;SDS011;11218;48.886;9.426;2023-03-14T06:32:45;10.00;;;2.05;;
22103;SDS011;11218;48.886;9.426;2023-03-14T06:35:13;16.52;;;3.20;;
22103;SDS011;11218;48.886;9.426;2023-03-14T06:37:41;20.95;;;3.58;;
22103;SDS011;11218;48.886;9.426;2023-03-14T06:40:10;18.30;;;2.85;;
22103;SDS011;11218;48.886;9.426;2023-03-14T06:42:44;14.45;;;2.17;;
22103;SDS011;11218;48.886;9.426;2023-03-14T06:45:12;13.43;;;2.22;;
22103;SDS011;11218;48.886;9.426;2023-03-14T06:47:41;18.25;;;3.00;;
22103;SDS011;11218;48.886;9.426;2023-03-14T06:50:10;23.67;;;3.75;;
22103;SDS011;11218;48.886;9.426;2023-03-14T06:52:38;15.80;;;2.72;;
22103;SDS011;11218;48.886;9.426;2023-03-14T06:55:07;16.08;;;3.00;;
22103;SDS011;11218;48.886;9.426;2023-03-14T06:57:36;15.38;;;2.65;;
22103;SDS011;11218;48.886;9.426;2023-03-14T07:00:06;9.75;;;1.70;;
22103;SDS011;11218;48.886;9.426;2023-03-14T07:02:36;19.52;;;3.08;;
22103;SDS011;11218;48.886;9.426;2023-03-14T07:05:08;16.20;;;2.42;;
22103;SDS011;11218;48.886;9.426;2023-03-14T07:07:37;18.25;;;2.88;;
22103;SDS011;11218;48.886;9.426;2023-03-14T07:10:06;22.92;;;3.42;;
22103;SDS011;11218;48.886;9.426;2023-03-14T07:12:35;21.02;;;3.10;;
22103;SDS011;11218;48.886;9.426;2023-03-14T07:15:05;24.52;;;3.70;;
22103;SDS011;11218;48.886;9.426;2023-03-14T07:17:44;16.70;;;2.88;;
22103;SDS011;11218;48.886;9.426;2023-03-14T07:20:12;21.90;;;3.33;;
22103;SDS011;11218;48.886;9.426;2023-03-14T07:22:40;15.05;;;2.50;;
22103;SDS011;11218;48.886;9.426;2023-03-14T07:25:08;13.43;;;2.33;;
22103;SDS011;11218;48.886;9.426;2023-03-14T07:27:38;19.65;;;2.78;;
22103;SDS011;11218;48.886;9.426;2023-03-14T07:30:08;19.10;;;3.03;;
22103;SDS011;11218;48.886;9.426;2023-03-14T07:32:37;10.43;;;1.80;;
22103;SDS011;11218;48.886;9.426;2023-03-14T07:35:06;19.02;;;2.85;;
22103;SDS011;11218;48.886;9.426;2023-03-14T07:37:35;23.02;;;3.50;;
22103;SDS011;11218;48.886;9.426;2023-03-14T07:40:04;19.23;;;3.20;;
22103;SDS011;11218;48.886;9.426;2023-03-14T07:42:33;23.23;;;3.30;;
22103;SDS011;11218;48.886;9.426;2023-03-14T07:45:01;27.58;;;4.07;;
22103;SDS011;11218;48.886;9.426;2023-03-14T07:47:31;22.77;;;3.58;;
22103;SDS011;11218;48.886;9.426;2023-03-14T07:49:59;29.83;;;3.67;;
22103;SDS011;11218;48.886;9.426;2023-03-14T07:52:27;18.67;;;2.85;;
22103;SDS011;11218;48.886;9.426;2023-03-14T07:54:55;21.50;;;3.00;;
22103;SDS011;11218;48.886;9.426;2023-03-14T07:57:23;16.50;;;3.53;;
22103;SDS011;11218;48.886;9.426;2023-03-14T07:59:52;16.50;;;2.65;;
22103;SDS011;11218;48.886;9.426;2023-03-14T08:02:20;13.80;;;2.28;;
22103;SDS011;11218;48.886;9.426;2023-03-14T08:04:51;12.48;;;2.03;;
22103;SDS011;11218;48.886;9.426;2023-03-14T08:07:20;27.20;;;4.13;;
22103;SDS011;11218;48.886;9.426;2023-03-14T08:09:48;18.83;;;2.88;;
22103;SDS011;11218;48.886;9.426;2023-03-14T08:12:16;20.60;;;3.30;;
22103;SDS011;11218;48.886;9.426;2023-03-14T08:14:44;21.67;;;3.10;;
22103;SDS011;11218;48.886;9.426;2023-03-14T08:17:16;25.33;;;3.83;;
22103;SDS011;11218;48.886;9.426;2023-03-14T08:19:47;13.55;;;2.20;;
22103;SDS011;11218;48.886;9.426;2023-03-14T08:22:16;15.68;;;2.50;;
22103;SDS011;11218;48.886;9.426;2023-03-14T08:24:45;11.23;;;1.92;;
22103;SDS011;11218;48.886;9.426;2023-03-14T08:27:13;13.95;;;2.28;;
22103;SDS011;11218;48.886;9.426;2023-03-14T08:29:41;16.17;;;2.53;;
22103;SDS011;11218;48.886;9.426;2023-03-14T08:32:10;12.95;;;1.98;;
22103;SDS011;11218;48.886;9.426;2023-03-14T08:34:38;12.13;;;2.05;;
22103;SDS011;11218;48.886;9.426;2023-03-14T08:37:06;18.52;;;2.80;;
22103;SDS011;11218;48.886;9.426;2023-03-14T08:39:52;17.92;;;2.85;;
22103;SDS011;11218;48.886;9.426;2023-03-14T08:42:20;17.63;;;2.70;;
22103;SDS011;11218;48.886;9.426;2023-03-14T08:44:49;15.95;;;2.60;;
22103;SDS011;11218;48.886;9.426;2023-03-14T08:47:18;13.98;;;2.28;;
22103;SDS011;11218;48.886;9.426;2023-03-14T08:49:46;14.07;;;2.38;;
22103;SDS011;11218;48.886;9.426;2023-03-14T08:52:15;14.13;;;2.10;;
22103;SDS011;11218;48.886;9.426;2023-03-14T08:54:43;18.55;;;2.80;;
22103;SDS011;11218;48.886;9.426;2023-03-14T08:57:13;18.80;;;2.72;;
22103;SDS011;11218;48.886;9.426;2023-03-14T08:59:41;11.60;;;1.92;;
22103;SDS011;11218;48.886;9.426;2023-03-14T09:02:10;28.02;;;3.97;;
22103;SDS011;11218;48.886;9.426;2023-03-14T09:04:39;14.20;;;2.40;;
22103;SDS011;11218;48.886;9.426;2023-03-14T09:07:07;19.85;;;3.03;;
22103;SDS011;11218;48.886;9.426;2023-03-14T09:09:35;23.52;;;3.55;;
22103;SDS011;11218;48.886;9.426;2023-03-14T09:12:04;17.98;;;2.75;;
22103;SDS011;11218;48.886;9.426;2023-03-14T09:14:33;15.10;;;2.47;;
22103;SDS011;11218;48.886;9.426;2023-03-14T09:17:02;20.75;;;2.88;;
22103;SDS011;11218;48.886;9.426;2023-03-14T09:19:30;11.75;;;2.22;;
22103;SDS011;11218;48.886;9.426;2023-03-14T09:21:58;18.55;;;2.70;;
22103;SDS011;11218;48.886;9.426;2023-03-14T09:24:26;14.52;;;2.28;;
22103;SDS011;11218;48.886;9.426;2023-03-14T09:26:55;16.42;;;2.53;;
22103;SDS011;11218;48.886;9.426;2023-03-14T09:29:23;18.35;;;2.83;;
22103;SDS011;11218;48.886;9.426;2023-03-14T09:31:53;18.08;;;2.70;;
22103;SDS011;11218;48.886;9.426;2023-03-14T09:34:23;18.83;;;2.90;;
22103;SDS011;11218;48.886;9.426;2023-03-14T09:36:51;9.77;;;1.50;;
22103;SDS011;11218;48.886;9.426;2023-03-14T09:39:20;15.77;;;2.53;;
22103;SDS011;11218;48.886;9.426;2023-03-14T09:41:49;16.33;;;2.33;;
22103;SDS011;11218;48.886;9.426;2023-03-14T09:44:19;15.75;;;2.25;;
22103;SDS011;11218;48.886;9.426;2023-03-14T09:46:54;15.68;;;2.45;;
22103;SDS011;11218;48.886;9.426;2023-03-14T09:49:27;17.90;;;3.28;;
22103;SDS011;11218;48.886;9.426;2023-03-14T09:51:57;16.23;;;2.72;;
22103;SDS011;11218;48.886;9.426;2023-03-14T09:54:31;11.25;;;1.90;;
22103;SDS011;11218;48.886;9.426;2023-03-14T09:57:04;17.60;;;2.55;;
22103;SDS011;11218;48.886;9.426;2023-03-14T09:59:33;25.17;;;3.65;;
22103;SDS011;11218;48.886;9.426;2023-03-14T10:02:13;18.60;;;2.88;;
22103;SDS011;11218;48.886;9.426;2023-03-14T10:04:43;20.73;;;2.95;;
22103;SDS011;11218;48.886;9.426;2023-03-14T10:07:13;22.73;;;3.13;;
22103;SDS011;11218;48.886;9.426;2023-03-14T10:09:46;23.52;;;3.38;;
22103;SDS011;11218;48.886;9.426;2023-03-14T10:12:17;25.92;;;3.47;;
22103;SDS011;11218;48.886;9.426;2023-03-14T10:14:46;20.17;;;2.92;;
22103;SDS011;11218;48.886;9.426;2023-03-14T10:17:18;23.17;;;3.35;;
22103;SDS011;11218;48.886;9.426;2023-03-14T10:19:52;21.63;;;2.85;;
22103;SDS011;11218;48.886;9.426;2023-03-14T10:22:23;29.10;;;4.05;;
22103;SDS011;11218;48.886;9.426;2023-03-14T10:24:54;13.02;;;2.05;;
22103;SDS011;11218;48.886;9.426;2023-03-14T10:27:27;23.98;;;3.58;;
22103;SDS011;11218;48.886;9.426;2023-03-14T10:29:58;16.27;;;2.40;;
22103;SDS011;11218;48.886;9.426;2023-03-14T10:32:31;14.23;;;2.47;;
22103;SDS011;11218;48.886;9.426;2023-03-14T10:35:06;17.88;;;2.72;;
22103;SDS011;11218;48.886;9.426;2023-03-14T10:37:51;17.15;;;2.53;;
22103;SDS011;11218;48.886;9.426;2023-03-14T10:40:24;10.85;;;1.83;;
22103;SDS011;11218;48.886;9.426;2023-03-14T10:42:57;12.85;;;1.90;;
22103;SDS011;11218;48.886;9.426;2023-03-14T10:45:33;11.90;;;1.90;;
22103;SDS011;11218;48.886;9.426;2023-03-14T10:48:16;21.95;;;3.28;;
22103;SDS011;11218;48.886;9.426;2023-03-14T10:50:47;24.42;;;3.28;;
22103;SDS011;11218;48.886;9.426;2023-03-14T10:53:17;17.00;;;2.53;;
22103;SDS011;11218;48.886;9.426;2023-03-14T10:55:46;18.63;;;2.78;;
22103;SDS011;11218;48.886;9.426;2023-03-14T10:58:18;11.88;;;1.63;;
22103;SDS011;11218;48.886;9.426;2023-03-14T11:00:50;16.15;;;2.53;;
22103;SDS011;11218;48.886;9.426;2023-03-14T11:03:22;12.90;;;1.98;;
22103;SDS011;11218;48.886;9.426;2023-03-14T11:05:56;13.55;;;2.15;;
22103;SDS011;11218;48.886;9.426;2023-03-14T11:08:27;16.00;;;2.42;;
22103;SDS011;11218;48.886;9.426;2023-03-14T11:11:02;15.40;;;2.33;;
22103;SDS011;11218;48.886;9.426;2023-03-14T11:13:39;14.63;;;2.45;;
22103;SDS011;11218;48.886;9.426;2023-03-14T11:16:15;13.07;;;2.08;;
22103;SDS011;11218;48.886;9.426;2023-03-14T11:19:00;19.02;;;2.75;;
22103;SDS011;11218;48.886;9.426;2023-03-14T11:21:41;9.90;;;1.65;;
22103;SDS011;11218;48.886;9.426;2023-03-14T11:24:25;12.57;;;2.00;;
22103;SDS011;11218;48.886;9.426;2023-03-14T11:27:03;19.58;;;3.00;;
22103;SDS011;11218;48.886;9.426;2023-03-14T11:29:38;18.98;;;2.63;;
22103;SDS011;11218;48.886;9.426;2023-03-14T11:32:12;19.25;;;2.13;;
22103;SDS011;11218;48.886;9.426;2023-03-14T11:34:46;7.55;;;1.33;;
22103;SDS011;11218;48.886;9.426;2023-03-14T11:37:21;16.67;;;2.58;;
22103;SDS011;11218;48.886;9.426;2023-03-14T11:39:55;12.52;;;2.10;;
22103;SDS011;11218;48.886;9.426;2023-03-14T11:42:33;16.52;;;2.60;;
22103;SDS011;11218;48.886;9.426;2023-03-14T11:45:01;13.77;;;2.25;;
22103;SDS011;11218;48.886;9.426;2023-03-14T11:47:32;24.30;;;3.17;;
22103;SDS011;11218;48.886;9.426;2023-03-14T11:50:08;17.95;;;2.72;;
22103;SDS011;11218;48.886;9.426;2023-03-14T11:52:44;19.10;;;2.88;;
22103;SDS011;11218;48.886;9.426;2023-03-14T11:55:19;13.48;;;2.28;;
22103;SDS011;11218;48.886;9.426;2023-03-14T11:57:53;19.75;;;2.78;;
22103;SDS011;11218;48.886;9.426;2023-03-14T12:00:25;10.40;;;1.73;;
22103;SDS011;11218;48.886;9.426;2023-03-14T12:02:55;13.38;;;2.35;;
22103;SDS011;11218;48.886;9.426;2023-03-14T12:05:38;17.27;;;2.55;;
22103;SDS011;11218;48.886;9.426;2023-03-14T12:08:22;19.20;;;2.78;;
22103;SDS011;11218;48.886;9.426;2023-03-14T12:11:09;15.40;;;2.33;;
22103;SDS011;11218;48.886;9.426;2023-03-14T12:13:41;16.20;;;2.70;;
22103;SDS011;11218;48.886;9.426;2023-03-14T12:16:35;15.23;;;2.50;;
22103;SDS011;11218;48.886;9.426;2023-03-14T12:19:13;26.67;;;3.50;;
22103;SDS011;11218;48.886;9.426;2023-03-14T12:21:54;27.95;;;4.18;;
22103;SDS011;11218;48.886;9.426;2023-03-14T12:24:26;18.95;;;3.03;;
22103;SDS011;11218;48.886;9.426;2023-03-14T12:26:58;16.52;;;2.72;;
22103;SDS011;11218;48.886;9.426;2023-03-14T12:29:28;18.42;;;2.80;;
22103;SDS011;11218;48.886;9.426;2023-03-14T12:32:08;14.98;;;2.35;;
22103;SDS011;11218;48.886;9.426;2023-03-14T12:34:49;14.90;;;2.53;;
22103;SDS011;11218;48.886;9.426;2023-03-14T12:37:25;20.23;;;2.97;;
22103;SDS011;11218;48.886;9.426;2023-03-14T12:40:03;25.13;;;3.55;;
22103;SDS011;11218;48.886;9.426;2023-03-14T12:42:46;20.95;;;3.13;;
22103;SDS011;11218;48.886;9.426;2023-03-14T12:45:26;24.83;;;3.55;;
22103;SDS011;11218;48.886;9.426;2023-03-14T12:47:59;28.15;;;4.50;;
22103;SDS011;11218;48.886;9.426;2023-03-14T12:50:39;22.13;;;3.35;;
22103;SDS011;11218;48.886;9.426;2023-03-14T12:56:24;22.80;;;3.75;;
22103;SDS011;11218;48.886;9.426;2023-03-14T12:59:02;19.23;;;3.50;;
22103;SDS011;11218;48.886;9.426;2023-03-14T13:01:45;29.00;;;4.82;;
22103;SDS011;11218;48.886;9.426;2023-03-14T13:04:18;19.42;;;3.70;;
22103;SDS011;11218;48.886;9.426;2023-03-14T13:07:02;24.50;;;4.18;;
22103;SDS011;11218;48.886;9.426;2023-03-14T13:12:46;18.73;;;3.15;;
22103;SDS011;11218;48.886;9.426;2023-03-14T13:15:31;17.83;;;3.20;;
22103;SDS011;11218;48.886;9.426;2023-03-14T13:18:03;25.67;;;4.32;;
22103;SDS011;11218;48.886;9.426;2023-03-14T13:20:42;15.27;;;2.65;;
22103;SDS011;11218;48.886;9.426;2023-03-14T13:23:24;13.57;;;2.55;;
22103;SDS011;11218;48.886;9.426;2023-03-14T13:25:55;19.42;;;2.83;;
22103;SDS011;11218;48.886;9.426;2023-03-14T13:28:24;19.90;;;3.35;;
22103;SDS011;11218;48.886;9.426;2023-03-14T13:30:56;13.18;;;2.22;;
22103;SDS011;11218;48.886;9.426;2023-03-14T13:33:26;13.30;;;2.58;;
22103;SDS011;11218;48.886;9.426;2023-03-14T13:35:55;14.68;;;2.58;;
22103;SDS011;11218;48.886;9.426;2023-03-14T13:38:24;20.10;;;3.20;;
22103;SDS011;11218;48.886;9.426;2023-03-14T13:40:56;20.58;;;3.15;;
22103;SDS011;11218;48.886;9.426;2023-03-14T13:43:27;13.77;;;2.20;;
22103;SDS011;11218;48.886;9.426;2023-03-14T13:46:00;15.65;;;2.45;;
22103;SDS011;11218;48.886;9.426;2023-03-14T13:48:32;32.90;;;4.25;;
22103;SDS011;11218;48.886;9.426;2023-03-14T13:51:03;27.70;;;3.88;;
22103;SDS011;11218;48.886;9.426;2023-03-14T13:53:42;22.48;;;3.40;;
22103;SDS011;11218;48.886;9.426;2023-03-14T13:56:12;15.82;;;2.65;;
22103;SDS011;11218;48.886;9.426;2023-03-14T13:58:41;19.10;;;3.10;;
22103;SDS011;11218;48.886;9.426;2023-03-14T14:01:11;24.10;;;3.42;;
22103;SDS011;11218;48.886;9.426;2023-03-14T14:03:44;19.45;;;2.90;;
22103;SDS011;11218;48.886;9.426;2023-03-14T14:06:28;11.55;;;2.20;;
22103;SDS011;11218;48.886;9.426;2023-03-14T14:08:58;16.77;;;2.67;;
22103;SDS011;11218;48.886;9.426;2023-03-14T14:14:41;18.52;;;2.92;;
22103;SDS011;11218;48.886;9.426;2023-03-14T14:17:15;18.48;;;3.13;;
22103;SDS011;11218;48.886;9.426;2023-03-14T14:19:47;23.05;;;3.05;;
22103;SDS011;11218;48.886;9.426;2023-03-14T14:22:17;19.17;;;3.08;;
22103;SDS011;11218;48.886;9.426;2023-03-14T14:24:47;21.08;;;3.55;;
22103;SDS011;11218;48.886;9.426;2023-03-14T14:27:23;26.48;;;3.47;;
22103;SDS011;11218;48.886;9.426;2023-03-14T14:29:59;15.70;;;2.75;;
22103;SDS011;11218;48.886;9.426;2023-03-14T14:32:34;10.75;;;1.95;;
22103;SDS011;11218;48.886;9.426;2023-03-14T14:35:04;16.15;;;2.40;;
22103;SDS011;11218;48.886;9.426;2023-03-14T14:37:33;16.20;;;2.55;;
22103;SDS011;11218;48.886;9.426;2023-03-14T14:40:06;24.35;;;3.85;;
22103;SDS011;11218;48.886;9.426;2023-03-14T14:42:40;16.90;;;2.85;;
22103;SDS011;11218;48.886;9.426;2023-03-14T14:45:11;11.57;;;1.90;;
22103;SDS011;11218;48.886;9.426;2023-03-14T14:47:48;29.88;;;4.20;;
22103;SDS011;11218;48.886;9.426;2023-03-14T14:50:27;30.77;;;4.45;;
22103;SDS011;11218;48.886;9.426;2023-03-14T14:52:57;37.47;;;5.15;;
22103;SDS011;11218;48.886;9.426;2023-03-14T14:55:29;27.60;;;4.10;;
22103;SDS011;11218;48.886;9.426;2023-03-14T14:58:11;17.98;;;2.72;;
22103;SDS011;11218;48.886;9.426;2023-03-14T15:00:51;12.50;;;2.15;;
22103;SDS011;11218;48.886;9.426;2023-03-14T15:03:22;20.65;;;3.03;;
22103;SDS011;11218;48.886;9.426;2023-03-14T15:05:55;15.02;;;2.47;;
22103;SDS011;11218;48.886;9.426;2023-03-14T15:08:24;15.60;;;2.50;;
22103;SDS011;11218;48.886;9.426;2023-03-14T15:10:54;16.65;;;2.50;;